sensor_id;sensor_type;location;lat;lon;timestamp;P1;durP1;ratioP1;P2;durP2;ratioP2
12348;SDS011;5974;42.710;27.258;2023-04-24T00:00:13;6.13;;;4.40;;
12348;SDS011;5974;42.710;27.258;2023-04-24T00:02:42;5.73;;;5.13;;
12348;SDS011;5974;42.710;27.258;2023-04-24T00:05:11;6.50;;;4.87;;
12348;SDS011;5974;42.710;27.258;2023-04-24T00:07:38;9.97;;;5.40;;
12348;SDS011;5974;42.710;27.258;2023-04-24T00:10:06;9.83;;;5.20;;
12348;SDS011;5974;42.710;27.258;2023-04-24T00:12:34;9.03;;;5.13;;
12348;SDS011;5974;42.710;27.258;2023-04-24T00:15:01;6.93;;;5.20;;
12348;SDS011;5974;42.710;27.258;2023-04-24T00:17:30;5.53;;;4.40;;
12348;SDS011;5974;42.710;27.258;2023-04-24T00:19:57;7.60;;;4.97;;
12348;SDS011;5974;42.710;27.258;2023-04-24T00:22:24;7.57;;;4.83;;
12348;SDS011;5974;42.710;27.258;2023-04-24T00:24:51;6.40;;;4.83;;
12348;SDS011;5974;42.710;27.258;2023-04-24T00:27:18;8.13;;;4.83;;
12348;SDS011;5974;42.710;27.258;2023-04-24T00:29:45;5.13;;;4.47;;
12348;SDS011;5974;42.710;27.258;2023-04-24T00:32:12;6.07;;;4.60;;
12348;SDS011;5974;42.710;27.258;2023-04-24T00:34:40;8.33;;;4.70;;
12348;SDS011;5974;42.710;27.258;2023-04-24T00:37:08;7.27;;;4.77;;
12348;SDS011;5974;42.710;27.258;2023-04-24T00:39:35;5.23;;;4.40;;
12348;SDS011;5974;42.710;27.258;2023-04-24T00:42:01;8.77;;;4.57;;
12348;SDS011;5974;42.710;27.258;2023-04-24T00:44:30;7.10;;;4.50;;
12348;SDS011;5974;42.710;27.258;2023-04-24T00:46:58;7.10;;;4.50;;
12348;SDS011;5974;42.710;27.258;2023-04-24T00:49:25;8.60;;;4.77;;
12348;SDS011;5974;42.710;27.258;2023-04-24T00:51:54;6.60;;;5.17;;
12348;SDS011;5974;42.710;27.258;2023-04-24T00:54:21;9.83;;;4.97;;
12348;SDS011;5974;42.710;27.258;2023-04-24T00:56:48;4.97;;;4.53;;
12348;SDS011;5974;42.710;27.258;2023-04-24T00:59:16;6.37;;;5.27;;
12348;SDS011;5974;42.710;27.258;2023-04-24T01:01:44;7.70;;;5.40;;
12348;SDS011;5974;42.710;27.258;2023-04-24T01:04:11;8.73;;;4.73;;
12348;SDS011;5974;42.710;27.258;2023-04-24T01:06:39;5.70;;;5.10;;
12348;SDS011;5974;42.710;27.258;2023-04-24T01:09:08;7.87;;;5.07;;
12348;SDS011;5974;42.710;27.258;2023-04-24T01:11:37;8.00;;;4.70;;
12348;SDS011;5974;42.710;27.258;2023-04-24T01:14:07;5.90;;;5.10;;
12348;SDS011;5974;42.710;27.258;2023-04-24T01:16:34;7.27;;;4.43;;
12348;SDS011;5974;42.710;27.258;2023-04-24T01:19:03;5.80;;;4.90;;
12348;SDS011;5974;42.710;27.258;2023-04-24T01:21:30;5.20;;;4.70;;
12348;SDS011;5974;42.710;27.258;2023-04-24T01:24:03;8.60;;;5.13;;
12348;SDS011;5974;42.710;27.258;2023-04-24T01:26:31;5.10;;;4.63;;
12348;SDS011;5974;42.710;27.258;2023-04-24T01:28:58;5.17;;;4.63;;
12348;SDS011;5974;42.710;27.258;2023-04-24T01:31:25;7.93;;;5.20;;
12348;SDS011;5974;42.710;27.258;2023-04-24T01:33:52;9.27;;;6.03;;
12348;SDS011;5974;42.710;27.258;2023-04-24T01:36:20;8.13;;;5.47;;
12348;SDS011;5974;42.710;27.258;2023-04-24T01:38:48;7.67;;;5.47;;
12348;SDS011;5974;42.710;27.258;2023-04-24T01:41:16;6.27;;;5.10;;
12348;SDS011;5974;42.710;27.258;2023-04-24T01:43:43;8.83;;;5.13;;
12348;SDS011;5974;42.710;27.258;2023-04-24T01:46:10;5.93;;;5.20;;
12348;SDS011;5974;42.710;27.258;2023-04-24T01:48:37;5.73;;;5.17;;
12348;SDS011;5974;42.710;27.258;2023-04-24T01:51:04;7.53;;;4.90;;
12348;SDS011;5974;42.710;27.258;2023-04-24T01:53:31;7.97;;;5.47;;
12348;SDS011;5974;42.710;27.258;2023-04-24T01:55:57;7.80;;;5.33;;
12348;SDS011;5974;42.710;27.258;2023-04-24T01:58:26;7.17;;;4.93;;
12348;SDS011;5974;42.710;27.258;2023-04-24T02:00:55;11.00;;;5.17;;
12348;SDS011;5974;42.710;27.258;2023-04-24T02:03:24;10.07;;;5.50;;
12348;SDS011;5974;42.710;27.258;2023-04-24T02:05:51;7.00;;;5.03;;
12348;SDS011;5974;42.710;27.258;2023-04-24T02:08:18;6.17;;;5.30;;
12348;SDS011;5974;42.710;27.258;2023-04-24T02:10:45;9.37;;;5.67;;
12348;SDS011;5974;42.710;27.258;2023-04-24T02:13:12;7.03;;;5.13;;
12348;SDS011;5974;42.710;27.258;2023-04-24T02:15:40;10.23;;;5.50;;
12348;SDS011;5974;42.710;27.258;2023-04-24T02:18:07;6.73;;;5.30;;
12348;SDS011;5974;42.710;27.258;2023-04-24T02:20:34;5.87;;;5.20;;
12348;SDS011;5974;42.710;27.258;2023-04-24T02:23:00;8.27;;;5.83;;
12348;SDS011;5974;42.710;27.258;2023-04-24T02:25:27;6.07;;;5.47;;
12348;SDS011;5974;42.710;27.258;2023-04-24T02:27:54;8.47;;;5.13;;
12348;SDS011;5974;42.710;27.258;2023-04-24T02:30:21;8.63;;;5.30;;
12348;SDS011;5974;42.710;27.258;2023-04-24T02:32:49;7.73;;;5.50;;
12348;SDS011;5974;42.710;27.258;2023-04-24T02:35:16;6.80;;;5.20;;
12348;SDS011;5974;42.710;27.258;2023-04-24T02:37:43;5.83;;;5.33;;
12348;SDS011;5974;42.710;27.258;2023-04-24T02:40:10;6.87;;;5.83;;
12348;SDS011;5974;42.710;27.258;2023-04-24T02:42:37;12.03;;;5.67;;
12348;SDS011;5974;42.710;27.258;2023-04-24T02:45:05;7.97;;;5.90;;
12348;SDS011;5974;42.710;27.258;2023-04-24T02:47:32;8.07;;;5.83;;
12348;SDS011;5974;42.710;27.258;2023-04-24T02:50:00;6.10;;;5.50;;
12348;SDS011;5974;42.710;27.258;2023-04-24T02:52:27;9.50;;;5.67;;
12348;SDS011;5974;42.710;27.258;2023-04-24T02:54:54;8.67;;;5.47;;
12348;SDS011;5974;42.710;27.258;2023-04-24T02:57:21;9.97;;;5.00;;
12348;SDS011;5974;42.710;27.258;2023-04-24T02:59:48;7.50;;;5.87;;
12348;SDS011;5974;42.710;27.258;2023-04-24T03:02:15;11.13;;;4.97;;
12348;SDS011;5974;42.710;27.258;2023-04-24T03:04:42;7.50;;;5.23;;
12348;SDS011;5974;42.710;27.258;2023-04-24T03:07:10;6.00;;;5.40;;
12348;SDS011;5974;42.710;27.258;2023-04-24T03:09:38;11.90;;;5.90;;
12348;SDS011;5974;42.710;27.258;2023-04-24T03:12:05;6.23;;;5.63;;
12348;SDS011;5974;42.710;27.258;2023-04-24T03:14:32;9.33;;;5.40;;
12348;SDS011;5974;42.710;27.258;2023-04-24T03:16:59;5.80;;;4.77;;
12348;SDS011;5974;42.710;27.258;2023-04-24T03:19:26;8.17;;;4.53;;
12348;SDS011;5974;42.710;27.258;2023-04-24T03:21:53;8.40;;;4.90;;
12348;SDS011;5974;42.710;27.258;2023-04-24T03:24:21;7.67;;;4.57;;
12348;SDS011;5974;42.710;27.258;2023-04-24T03:26:48;5.10;;;4.57;;
12348;SDS011;5974;42.710;27.258;2023-04-24T03:29:15;8.73;;;5.60;;
12348;SDS011;5974;42.710;27.258;2023-04-24T03:31:42;9.53;;;5.40;;
12348;SDS011;5974;42.710;27.258;2023-04-24T03:34:09;10.50;;;5.90;;
12348;SDS011;5974;42.710;27.258;2023-04-24T03:36:35;8.83;;;5.70;;
12348;SDS011;5974;42.710;27.258;2023-04-24T03:39:02;8.20;;;5.57;;
12348;SDS011;5974;42.710;27.258;2023-04-24T03:41:31;5.73;;;5.13;;
12348;SDS011;5974;42.710;27.258;2023-04-24T03:43:58;11.23;;;5.13;;
12348;SDS011;5974;42.710;27.258;2023-04-24T03:46:25;7.70;;;5.67;;
12348;SDS011;5974;42.710;27.258;2023-04-24T03:48:52;7.67;;;5.00;;
12348;SDS011;5974;42.710;27.258;2023-04-24T03:51:19;7.63;;;5.27;;
12348;SDS011;5974;42.710;27.258;2023-04-24T03:53:45;7.17;;;5.47;;
12348;SDS011;5974;42.710;27.258;2023-04-24T03:56:12;10.30;;;5.17;;
12348;SDS011;5974;42.710;27.258;2023-04-24T03:58:41;8.07;;;5.00;;
12348;SDS011;5974;42.710;27.258;2023-04-24T04:01:08;7.97;;;4.93;;
12348;SDS011;5974;42.710;27.258;2023-04-24T04:03:35;8.60;;;4.90;;
12348;SDS011;5974;42.710;27.258;2023-04-24T04:06:02;8.40;;;4.83;;
12348;SDS011;5974;42.710;27.258;2023-04-24T04:08:29;6.13;;;5.33;;
12348;SDS011;5974;42.710;27.258;2023-04-24T04:10:56;6.97;;;5.10;;
12348;SDS011;5974;42.710;27.258;2023-04-24T04:13:23;8.10;;;5.00;;
12348;SDS011;5974;42.710;27.258;2023-04-24T04:15:51;10.47;;;5.17;;
12348;SDS011;5974;42.710;27.258;2023-04-24T04:18:18;7.87;;;4.90;;
12348;SDS011;5974;42.710;27.258;2023-04-24T04:20:45;6.57;;;4.83;;
12348;SDS011;5974;42.710;27.258;2023-04-24T04:23:11;6.37;;;4.50;;
12348;SDS011;5974;42.710;27.258;2023-04-24T04:25:38;5.70;;;4.80;;
12348;SDS011;5974;42.710;27.258;2023-04-24T04:28:05;7.30;;;4.00;;
12348;SDS011;5974;42.710;27.258;2023-04-24T04:30:32;9.57;;;4.70;;
12348;SDS011;5974;42.710;27.258;2023-04-24T04:33:00;7.83;;;3.97;;
12348;SDS011;5974;42.710;27.258;2023-04-24T04:35:27;8.73;;;4.20;;
12348;SDS011;5974;42.710;27.258;2023-04-24T04:37:54;5.80;;;4.03;;
12348;SDS011;5974;42.710;27.258;2023-04-24T04:40:24;5.57;;;3.20;;
12348;SDS011;5974;42.710;27.258;2023-04-24T04:42:51;4.90;;;3.63;;
12348;SDS011;5974;42.710;27.258;2023-04-24T04:45:19;5.67;;;3.40;;
12348;SDS011;5974;42.710;27.258;2023-04-24T04:47:45;6.43;;;3.43;;
12348;SDS011;5974;42.710;27.258;2023-04-24T04:50:14;5.97;;;4.13;;
12348;SDS011;5974;42.710;27.258;2023-04-24T04:52:41;6.00;;;3.70;;
12348;SDS011;5974;42.710;27.258;2023-04-24T04:55:08;5.10;;;3.70;;
12348;SDS011;5974;42.710;27.258;2023-04-24T04:57:36;6.03;;;4.50;;
12348;SDS011;5974;42.710;27.258;2023-04-24T05:00:03;5.50;;;4.57;;
12348;SDS011;5974;42.710;27.258;2023-04-24T05:02:32;6.17;;;4.40;;
12348;SDS011;5974;42.710;27.258;2023-04-24T05:04:59;9.53;;;4.83;;
12348;SDS011;5974;42.710;27.258;2023-04-24T05:07:27;8.63;;;5.40;;
12348;SDS011;5974;42.710;27.258;2023-04-24T05:09:54;11.13;;;8.97;;
12348;SDS011;5974;42.710;27.258;2023-04-24T05:12:20;11.93;;;10.07;;
12348;SDS011;5974;42.710;27.258;2023-04-24T05:14:47;13.03;;;7.67;;
12348;SDS011;5974;42.710;27.258;2023-04-24T05:17:15;8.97;;;6.80;;
12348;SDS011;5974;42.710;27.258;2023-04-24T05:19:41;11.07;;;7.83;;
12348;SDS011;5974;42.710;27.258;2023-04-24T05:22:08;16.13;;;8.10;;
12348;SDS011;5974;42.710;27.258;2023-04-24T05:24:38;14.53;;;9.00;;
12348;SDS011;5974;42.710;27.258;2023-04-24T05:27:05;15.43;;;8.03;;
12348;SDS011;5974;42.710;27.258;2023-04-24T05:29:32;15.20;;;8.10;;
12348;SDS011;5974;42.710;27.258;2023-04-24T05:31:59;13.60;;;7.77;;
12348;SDS011;5974;42.710;27.258;2023-04-24T05:34:26;12.23;;;8.73;;
12348;SDS011;5974;42.710;27.258;2023-04-24T05:36:53;15.47;;;9.03;;
12348;SDS011;5974;42.710;27.258;2023-04-24T05:39:20;12.97;;;8.47;;
12348;SDS011;5974;42.710;27.258;2023-04-24T05:41:48;11.67;;;7.90;;
12348;SDS011;5974;42.710;27.258;2023-04-24T05:44:15;12.33;;;8.23;;
12348;SDS011;5974;42.710;27.258;2023-04-24T05:46:42;11.50;;;6.77;;
12348;SDS011;5974;42.710;27.258;2023-04-24T05:49:09;10.47;;;5.77;;
12348;SDS011;5974;42.710;27.258;2023-04-24T05:51:35;11.77;;;6.30;;
12348;SDS011;5974;42.710;27.258;2023-04-24T05:54:04;13.73;;;6.30;;
12348;SDS011;5974;42.710;27.258;2023-04-24T05:56:31;11.70;;;6.67;;
12348;SDS011;5974;42.710;27.258;2023-04-24T05:58:59;9.87;;;6.97;;
12348;SDS011;5974;42.710;27.258;2023-04-24T06:01:26;15.03;;;8.07;;
12348;SDS011;5974;42.710;27.258;2023-04-24T06:03:53;17.80;;;7.80;;
12348;SDS011;5974;42.710;27.258;2023-04-24T06:06:20;10.13;;;8.07;;
12348;SDS011;5974;42.710;27.258;2023-04-24T06:08:47;15.73;;;8.27;;
12348;SDS011;5974;42.710;27.258;2023-04-24T06:11:14;14.73;;;8.20;;
12348;SDS011;5974;42.710;27.258;2023-04-24T06:13:40;11.47;;;7.67;;
12348;SDS011;5974;42.710;27.258;2023-04-24T06:16:09;12.37;;;6.23;;
12348;SDS011;5974;42.710;27.258;2023-04-24T06:18:36;16.00;;;7.40;;
12348;SDS011;5974;42.710;27.258;2023-04-24T06:21:03;12.80;;;7.90;;
12348;SDS011;5974;42.710;27.258;2023-04-24T06:23:30;13.87;;;7.10;;
12348;SDS011;5974;42.710;27.258;2023-04-24T06:25:58;12.23;;;6.80;;
12348;SDS011;5974;42.710;27.258;2023-04-24T06:28:24;14.07;;;7.03;;
12348;SDS011;5974;42.710;27.258;2023-04-24T06:30:52;11.07;;;5.80;;
12348;SDS011;5974;42.710;27.258;2023-04-24T06:33:22;9.10;;;5.10;;
12348;SDS011;5974;42.710;27.258;2023-04-24T06:35:49;9.40;;;4.40;;
12348;SDS011;5974;42.710;27.258;2023-04-24T06:38:16;8.20;;;5.20;;
12348;SDS011;5974;42.710;27.258;2023-04-24T06:40:42;8.37;;;5.10;;
12348;SDS011;5974;42.710;27.258;2023-04-24T06:43:09;7.93;;;4.50;;
12348;SDS011;5974;42.710;27.258;2023-04-24T06:45:37;11.13;;;4.40;;
12348;SDS011;5974;42.710;27.258;2023-04-24T06:48:04;13.33;;;4.87;;
12348;SDS011;5974;42.710;27.258;2023-04-24T06:50:33;10.37;;;4.57;;
12348;SDS011;5974;42.710;27.258;2023-04-24T06:53:00;9.67;;;4.90;;
12348;SDS011;5974;42.710;27.258;2023-04-24T06:55:27;7.50;;;4.30;;
12348;SDS011;5974;42.710;27.258;2023-04-24T06:57:54;7.40;;;4.07;;
12348;SDS011;5974;42.710;27.258;2023-04-24T07:00:21;11.40;;;4.47;;
12348;SDS011;5974;42.710;27.258;2023-04-24T07:02:49;12.13;;;4.50;;
12348;SDS011;5974;42.710;27.258;2023-04-24T07:05:16;8.40;;;4.30;;
12348;SDS011;5974;42.710;27.258;2023-04-24T07:07:47;8.20;;;4.23;;
12348;SDS011;5974;42.710;27.258;2023-04-24T07:10:16;6.23;;;4.53;;
12348;SDS011;5974;42.710;27.258;2023-04-24T07:12:43;12.00;;;5.63;;
12348;SDS011;5974;42.710;27.258;2023-04-24T07:15:10;7.17;;;4.17;;
12348;SDS011;5974;42.710;27.258;2023-04-24T07:17:37;7.17;;;4.77;;
12348;SDS011;5974;42.710;27.258;2023-04-24T07:20:08;8.80;;;4.60;;
12348;SDS011;5974;42.710;27.258;2023-04-24T07:22:37;9.13;;;4.07;;
12348;SDS011;5974;42.710;27.258;2023-04-24T07:25:05;7.63;;;4.50;;
12348;SDS011;5974;42.710;27.258;2023-04-24T07:27:33;7.60;;;4.47;;
12348;SDS011;5974;42.710;27.258;2023-04-24T07:30:01;8.77;;;4.37;;
12348;SDS011;5974;42.710;27.258;2023-04-24T07:32:28;8.00;;;5.53;;
12348;SDS011;5974;42.710;27.258;2023-04-24T07:34:55;12.07;;;5.00;;
12348;SDS011;5974;42.710;27.258;2023-04-24T07:37:22;11.30;;;5.33;;
12348;SDS011;5974;42.710;27.258;2023-04-24T07:39:49;10.70;;;5.53;;
12348;SDS011;5974;42.710;27.258;2023-04-24T07:42:17;8.67;;;6.53;;
12348;SDS011;5974;42.710;27.258;2023-04-24T07:44:44;10.73;;;4.40;;
12348;SDS011;5974;42.710;27.258;2023-04-24T07:47:12;7.67;;;4.27;;
12348;SDS011;5974;42.710;27.258;2023-04-24T07:49:40;8.87;;;5.10;;
12348;SDS011;5974;42.710;27.258;2023-04-24T07:52:08;5.87;;;3.90;;
12348;SDS011;5974;42.710;27.258;2023-04-24T07:54:34;7.30;;;3.80;;
12348;SDS011;5974;42.710;27.258;2023-04-24T07:57:02;7.07;;;4.40;;
12348;SDS011;5974;42.710;27.258;2023-04-24T07:59:30;9.67;;;5.17;;
12348;SDS011;5974;42.710;27.258;2023-04-24T08:01:57;7.33;;;4.53;;
12348;SDS011;5974;42.710;27.258;2023-04-24T08:04:24;10.27;;;5.00;;
12348;SDS011;5974;42.710;27.258;2023-04-24T08:06:51;8.97;;;5.97;;
12348;SDS011;5974;42.710;27.258;2023-04-24T08:09:17;10.27;;;6.07;;
12348;SDS011;5974;42.710;27.258;2023-04-24T08:11:44;9.57;;;5.00;;
12348;SDS011;5974;42.710;27.258;2023-04-24T08:14:11;8.70;;;6.30;;
12348;SDS011;5974;42.710;27.258;2023-04-24T08:16:41;7.67;;;5.73;;
12348;SDS011;5974;42.710;27.258;2023-04-24T08:19:08;8.90;;;5.60;;
12348;SDS011;5974;42.710;27.258;2023-04-24T08:21:35;8.73;;;5.10;;
12348;SDS011;5974;42.710;27.258;2023-04-24T08:24:02;9.93;;;5.20;;
12348;SDS011;5974;42.710;27.258;2023-04-24T08:26:32;6.87;;;5.87;;
12348;SDS011;5974;42.710;27.258;2023-04-24T08:28:59;6.30;;;4.97;;
12348;SDS011;5974;42.710;27.258;2023-04-24T08:31:26;8.67;;;4.57;;
12348;SDS011;5974;42.710;27.258;2023-04-24T08:33:54;10.27;;;4.77;;
12348;SDS011;5974;42.710;27.258;2023-04-24T08:36:21;7.67;;;4.50;;
12348;SDS011;5974;42.710;27.258;2023-04-24T08:38:48;12.67;;;4.80;;
12348;SDS011;5974;42.710;27.258;2023-04-24T08:41:15;7.03;;;4.70;;
12348;SDS011;5974;42.710;27.258;2023-04-24T08:43:45;6.83;;;5.00;;
12348;SDS011;5974;42.710;27.258;2023-04-24T08:46:13;7.90;;;4.50;;
12348;SDS011;5974;42.710;27.258;2023-04-24T08:48:41;7.03;;;4.60;;
12348;SDS011;5974;42.710;27.258;2023-04-24T08:51:10;8.83;;;4.50;;
12348;SDS011;5974;42.710;27.258;2023-04-24T08:53:37;8.20;;;4.63;;
12348;SDS011;5974;42.710;27.258;2023-04-24T08:56:04;6.60;;;4.73;;
12348;SDS011;5974;42.710;27.258;2023-04-24T08:58:31;7.77;;;4.80;;
12348;SDS011;5974;42.710;27.258;2023-04-24T09:00:59;7.57;;;4.53;;
12348;SDS011;5974;42.710;27.258;2023-04-24T09:03:27;7.17;;;4.27;;
12348;SDS011;5974;42.710;27.258;2023-04-24T09:05:55;8.20;;;4.70;;
12348;SDS011;5974;42.710;27.258;2023-04-24T09:08:25;9.33;;;4.30;;
12348;SDS011;5974;42.710;27.258;2023-04-24T09:10:52;7.97;;;3.50;;
12348;SDS011;5974;42.710;27.258;2023-04-24T09:13:19;7.17;;;3.70;;
12348;SDS011;5974;42.710;27.258;2023-04-24T09:15:47;8.87;;;4.10;;
12348;SDS011;5974;42.710;27.258;2023-04-24T09:18:13;6.33;;;3.70;;
12348;SDS011;5974;42.710;27.258;2023-04-24T09:20:59;7.10;;;3.80;;
12348;SDS011;5974;42.710;27.258;2023-04-24T09:23:29;9.10;;;3.77;;
12348;SDS011;5974;42.710;27.258;2023-04-24T09:25:57;7.67;;;3.70;;
12348;SDS011;5974;42.710;27.258;2023-04-24T09:28:30;7.10;;;3.70;;
12348;SDS011;5974;42.710;27.258;2023-04-24T09:31:02;3.93;;;3.53;;
12348;SDS011;5974;42.710;27.258;2023-04-24T09:33:30;8.33;;;4.30;;
12348;SDS011;5974;42.710;27.258;2023-04-24T09:35:57;7.70;;;3.90;;
12348;SDS011;5974;42.710;27.258;2023-04-24T09:38:35;7.33;;;4.50;;
12348;SDS011;5974;42.710;27.258;2023-04-24T09:41:04;6.90;;;4.20;;
12348;SDS011;5974;42.710;27.258;2023-04-24T09:43:32;6.73;;;4.10;;
12348;SDS011;5974;42.710;27.258;2023-04-24T09:46:03;5.67;;;3.70;;
12348;SDS011;5974;42.710;27.258;2023-04-24T09:48:31;6.73;;;4.17;;
12348;SDS011;5974;42.710;27.258;2023-04-24T09:50:59;7.73;;;4.80;;
12348;SDS011;5974;42.710;27.258;2023-04-24T09:53:29;7.00;;;4.30;;
12348;SDS011;5974;42.710;27.258;2023-04-24T09:55:58;6.77;;;4.77;;
12348;SDS011;5974;42.710;27.258;2023-04-24T09:58:28;8.00;;;4.50;;
12348;SDS011;5974;42.710;27.258;2023-04-24T10:00:56;7.53;;;5.23;;
12348;SDS011;5974;42.710;27.258;2023-04-24T10:03:23;8.13;;;4.87;;
12348;SDS011;5974;42.710;27.258;2023-04-24T10:05:57;7.70;;;4.87;;
12348;SDS011;5974;42.710;27.258;2023-04-24T10:08:24;8.13;;;4.57;;
12348;SDS011;5974;42.710;27.258;2023-04-24T10:10:52;6.13;;;5.07;;
12348;SDS011;5974;42.710;27.258;2023-04-24T10:13:20;6.10;;;4.60;;
12348;SDS011;5974;42.710;27.258;2023-04-24T10:15:47;6.57;;;4.60;;
12348;SDS011;5974;42.710;27.258;2023-04-24T10:18:15;6.47;;;3.80;;
12348;SDS011;5974;42.710;27.258;2023-04-24T10:20:42;8.00;;;4.20;;
12348;SDS011;5974;42.710;27.258;2023-04-24T10:23:09;9.23;;;4.80;;
12348;SDS011;5974;42.710;27.258;2023-04-24T10:25:37;9.63;;;3.97;;
12348;SDS011;5974;42.710;27.258;2023-04-24T10:28:04;7.10;;;3.93;;
12348;SDS011;5974;42.710;27.258;2023-04-24T10:30:33;3.83;;;3.13;;
12348;SDS011;5974;42.710;27.258;2023-04-24T10:33:01;5.00;;;3.47;;
12348;SDS011;5974;42.710;27.258;2023-04-24T10:35:30;7.73;;;3.70;;
12348;SDS011;5974;42.710;27.258;2023-04-24T10:37:59;5.03;;;4.07;;
12348;SDS011;5974;42.710;27.258;2023-04-24T10:40:30;9.00;;;3.90;;
12348;SDS011;5974;42.710;27.258;2023-04-24T10:42:58;6.23;;;3.20;;
12348;SDS011;5974;42.710;27.258;2023-04-24T10:45:26;8.93;;;3.60;;
12348;SDS011;5974;42.710;27.258;2023-04-24T10:47:54;5.90;;;3.17;;
12348;SDS011;5974;42.710;27.258;2023-04-24T10:50:25;4.43;;;2.97;;
12348;SDS011;5974;42.710;27.258;2023-04-24T10:52:53;6.33;;;2.90;;
12348;SDS011;5974;42.710;27.258;2023-04-24T10:55:41;8.07;;;3.67;;
12348;SDS011;5974;42.710;27.258;2023-04-24T10:58:09;5.10;;;3.33;;
12348;SDS011;5974;42.710;27.258;2023-04-24T11:00:37;4.40;;;3.27;;
12348;SDS011;5974;42.710;27.258;2023-04-24T11:03:09;6.00;;;3.20;;
12348;SDS011;5974;42.710;27.258;2023-04-24T11:05:50;6.33;;;3.20;;
12348;SDS011;5974;42.710;27.258;2023-04-24T11:08:26;5.67;;;3.30;;
12348;SDS011;5974;42.710;27.258;2023-04-24T11:10:56;4.53;;;3.17;;
12348;SDS011;5974;42.710;27.258;2023-04-24T11:13:25;6.17;;;3.47;;
12348;SDS011;5974;42.710;27.258;2023-04-24T11:16:12;3.97;;;2.90;;
12348;SDS011;5974;42.710;27.258;2023-04-24T11:18:43;8.00;;;3.50;;
12348;SDS011;5974;42.710;27.258;2023-04-24T11:21:16;13.90;;;3.70;;
12348;SDS011;5974;42.710;27.258;2023-04-24T11:23:44;5.53;;;3.70;;
12348;SDS011;5974;42.710;27.258;2023-04-24T11:26:11;6.27;;;3.60;;
12348;SDS011;5974;42.710;27.258;2023-04-24T11:28:49;7.70;;;3.57;;
12348;SDS011;5974;42.710;27.258;2023-04-24T11:31:39;4.27;;;2.73;;
12348;SDS011;5974;42.710;27.258;2023-04-24T11:34:09;12.87;;;3.23;;
12348;SDS011;5974;42.710;27.258;2023-04-24T11:36:38;8.10;;;3.00;;
12348;SDS011;5974;42.710;27.258;2023-04-24T11:39:05;7.27;;;3.77;;
12348;SDS011;5974;42.710;27.258;2023-04-24T11:41:33;7.17;;;2.70;;
12348;SDS011;5974;42.710;27.258;2023-04-24T11:44:00;4.13;;;2.73;;
12348;SDS011;5974;42.710;27.258;2023-04-24T11:46:29;2.93;;;2.60;;
12348;SDS011;5974;42.710;27.258;2023-04-24T11:48:57;5.80;;;2.90;;
12348;SDS011;5974;42.710;27.258;2023-04-24T11:51:26;5.20;;;2.70;;
12348;SDS011;5974;42.710;27.258;2023-04-24T11:53:54;2.43;;;2.20;;
12348;SDS011;5974;42.710;27.258;2023-04-24T11:56:21;5.90;;;2.60;;
12348;SDS011;5974;42.710;27.258;2023-04-24T11:58:51;4.33;;;2.60;;
12348;SDS011;5974;42.710;27.258;2023-04-24T12:01:19;3.90;;;2.50;;
12348;SDS011;5974;42.710;27.258;2023-04-24T12:03:47;6.23;;;2.60;;
12348;SDS011;5974;42.710;27.258;2023-04-24T12:06:16;8.10;;;2.60;;
12348;SDS011;5974;42.710;27.258;2023-04-24T12:08:46;2.87;;;2.33;;
12348;SDS011;5974;42.710;27.258;2023-04-24T12:11:14;4.43;;;2.30;;
12348;SDS011;5974;42.710;27.258;2023-04-24T12:13:44;3.97;;;2.40;;
12348;SDS011;5974;42.710;27.258;2023-04-24T12:16:11;5.07;;;2.30;;
12348;SDS011;5974;42.710;27.258;2023-04-24T12:18:42;4.40;;;2.60;;
12348;SDS011;5974;42.710;27.258;2023-04-24T12:21:19;5.87;;;2.40;;
12348;SDS011;5974;42.710;27.258;2023-04-24T12:23:48;3.03;;;2.37;;
12348;SDS011;5974;42.710;27.258;2023-04-24T12:26:17;3.60;;;2.40;;
12348;SDS011;5974;42.710;27.258;2023-04-24T12:28:46;3.87;;;2.40;;
12348;SDS011;5974;42.710;27.258;2023-04-24T12:31:14;5.40;;;2.47;;
12348;SDS011;5974;42.710;27.258;2023-04-24T12:33:42;3.07;;;2.13;;
12348;SDS011;5974;42.710;27.258;2023-04-24T12:36:09;2.67;;;2.10;;
12348;SDS011;5974;42.710;27.258;2023-04-24T12:38:38;3.07;;;2.30;;
12348;SDS011;5974;42.710;27.258;2023-04-24T12:41:11;4.70;;;2.77;;
12348;SDS011;5974;42.710;27.258;2023-04-24T12:43:40;5.27;;;2.20;;
12348;SDS011;5974;42.710;27.258;2023-04-24T12:46:17;2.57;;;2.00;;
12348;SDS011;5974;42.710;27.258;2023-04-24T12:48:44;2.97;;;2.00;;
12348;SDS011;5974;42.710;27.258;2023-04-24T12:51:11;3.07;;;2.13;;
12348;SDS011;5974;42.710;27.258;2023-04-24T12:53:38;4.43;;;2.13;;
12348;SDS011;5974;42.710;27.258;2023-04-24T12:56:05;5.97;;;1.97;;
12348;SDS011;5974;42.710;27.258;2023-04-24T12:58:33;5.23;;;2.47;;
12348;SDS011;5974;42.710;27.258;2023-04-24T13:01:00;2.17;;;1.90;;
12348;SDS011;5974;42.710;27.258;2023-04-24T13:03:27;2.43;;;2.03;;
12348;SDS011;5974;42.710;27.258;2023-04-24T13:05:54;2.87;;;1.80;;
12348;SDS011;5974;42.710;27.258;2023-04-24T13:08:21;3.80;;;1.97;;
12348;SDS011;5974;42.710;27.258;2023-04-24T13:10:48;2.90;;;2.10;;
12348;SDS011;5974;42.710;27.258;2023-04-24T13:13:16;5.67;;;2.10;;
12348;SDS011;5974;42.710;27.258;2023-04-24T13:15:44;3.33;;;2.07;;
12348;SDS011;5974;42.710;27.258;2023-04-24T13:18:11;5.20;;;2.17;;
12348;SDS011;5974;42.710;27.258;2023-04-24T13:20:38;3.00;;;2.07;;
12348;SDS011;5974;42.710;27.258;2023-04-24T13:23:06;5.07;;;2.00;;
12348;SDS011;5974;42.710;27.258;2023-04-24T13:25:34;3.43;;;2.40;;
12348;SDS011;5974;42.710;27.258;2023-04-24T13:28:02;3.73;;;2.17;;
12348;SDS011;5974;42.710;27.258;2023-04-24T13:30:29;6.83;;;3.20;;
12348;SDS011;5974;42.710;27.258;2023-04-24T13:32:57;5.00;;;3.60;;
12348;SDS011;5974;42.710;27.258;2023-04-24T13:35:24;4.23;;;2.40;;
12348;SDS011;5974;42.710;27.258;2023-04-24T13:37:51;3.13;;;2.20;;
12348;SDS011;5974;42.710;27.258;2023-04-24T13:40:18;4.63;;;2.63;;
12348;SDS011;5974;42.710;27.258;2023-04-24T13:42:45;6.77;;;2.80;;
12348;SDS011;5974;42.710;27.258;2023-04-24T13:45:11;4.40;;;2.53;;
12348;SDS011;5974;42.710;27.258;2023-04-24T13:47:39;3.03;;;2.43;;
12348;SDS011;5974;42.710;27.258;2023-04-24T13:50:08;5.93;;;2.07;;
12348;SDS011;5974;42.710;27.258;2023-04-24T13:52:35;6.83;;;2.07;;
12348;SDS011;5974;42.710;27.258;2023-04-24T13:55:02;3.80;;;1.80;;
12348;SDS011;5974;42.710;27.258;2023-04-24T13:57:29;7.07;;;3.37;;
12348;SDS011;5974;42.710;27.258;2023-04-24T13:59:58;6.90;;;3.80;;
12348;SDS011;5974;42.710;27.258;2023-04-24T14:02:26;5.03;;;2.10;;
12348;SDS011;5974;42.710;27.258;2023-04-24T14:04:53;6.43;;;2.63;;
12348;SDS011;5974;42.710;27.258;2023-04-24T14:07:21;5.97;;;2.33;;
12348;SDS011;5974;42.710;27.258;2023-04-24T14:09:48;4.43;;;1.93;;
12348;SDS011;5974;42.710;27.258;2023-04-24T14:12:16;6.03;;;2.33;;
12348;SDS011;5974;42.710;27.258;2023-04-24T14:14:44;4.80;;;2.07;;
12348;SDS011;5974;42.710;27.258;2023-04-24T14:17:13;5.07;;;2.17;;
12348;SDS011;5974;42.710;27.258;2023-04-24T14:19:40;2.63;;;1.90;;
12348;SDS011;5974;42.710;27.258;2023-04-24T14:22:06;3.57;;;2.20;;
12348;SDS011;5974;42.710;27.258;2023-04-24T14:24:35;6.03;;;3.60;;
12348;SDS011;5974;42.710;27.258;2023-04-24T14:27:02;6.73;;;2.87;;
12348;SDS011;5974;42.710;27.258;2023-04-24T14:29:28;4.73;;;2.23;;
12348;SDS011;5974;42.710;27.258;2023-04-24T14:31:55;5.30;;;2.30;;
12348;SDS011;5974;42.710;27.258;2023-04-24T14:34:22;5.67;;;2.30;;
12348;SDS011;5974;42.710;27.258;2023-04-24T14:36:49;4.27;;;2.40;;
12348;SDS011;5974;42.710;27.258;2023-04-24T14:39:16;4.83;;;2.00;;
12348;SDS011;5974;42.710;27.258;2023-04-24T14:41:44;5.53;;;2.27;;
12348;SDS011;5974;42.710;27.258;2023-04-24T14:44:11;6.47;;;2.47;;
12348;SDS011;5974;42.710;27.258;2023-04-24T14:46:38;10.87;;;6.37;;
12348;SDS011;5974;42.710;27.258;2023-04-24T14:49:05;3.83;;;2.30;;